Time;durP1;ratioP1;P1;durP2;ratioP2;P2;SDS_P1;SDS_P2;PMS_P1;PMS_P2;Temp;Humidity;BMP_temperature;BMP_pressure;BME280_temperature;BME280_humidity;BME280_pressure;Samples;Min_cycle;Max_cycle;Signal;HPM_P1;HPM_P2
2024/01/02 00:02:53;;;;;;;31.00;11.80;;;;;;;;;;10131435;29;20043;-80
2024/01/02 00:07:54;;;;;;;27.87;12.43;;;;;;;;;;10131094;29;20481;-80
2024/01/02 00:12:58;;;;;;;28.17;12.07;;;;;;;;;;10131043;29;20049;-78
2024/01/02 00:17:59;;;;;;;27.20;11.50;;;;;;;;;;10113284;29;20620;-79
2024/01/02 00:23:06;;;;;;;28.00;10.90;;;;;;;;;;10131107;29;20084;-81
2024/01/02 00:28:07;;;;;;;27.77;11.87;;;;;;;;;;10130030;29;20493;-80
2024/01/02 00:33:08;;;;;;;29.63;12.87;;;;;;;;;;10113683;29;20036;-80
2024/01/02 00:38:09;;;;;;;28.00;11.43;;;;;;;;;;10098135;29;20044;-79
2024/01/02 00:43:10;;;;;;;26.63;11.47;;;;;;;;;;10130185;29;20028;-79
2024/01/02 00:48:11;;;;;;;27.33;11.43;;;;;;;;;;10130211;29;20140;-79
2024/01/02 00:53:12;;;;;;;24.90;10.30;;;;;;;;;;10129691;29;20050;-80
2024/01/02 00:58:13;;;;;;;18.63;8.97;;;;;;;;;;10129521;29;20607;-80
2024/01/02 01:03:14;;;;;;;29.10;12.43;;;;;;;;;;10129744;29;20036;-80
2024/01/02 01:08:15;;;;;;;23.90;9.73;;;;;;;;;;10128649;29;20520;-84
2024/01/02 01:13:16;;;;;;;23.47;9.77;;;;;;;;;;10128111;29;20056;-80
2024/01/02 01:18:17;;;;;;;24.87;11.37;;;;;;;;;;10112568;29;20477;-83
2024/01/02 01:23:18;;;;;;;21.93;9.67;;;;;;;;;;10127581;29;20048;-83
2024/01/02 01:28:19;;;;;;;31.93;13.43;;;;;;;;;;10128735;29;20036;-80
2024/01/02 01:33:20;;;;;;;25.73;11.67;;;;;;;;;;10128534;29;20040;-80
2024/01/02 01:38:24;;;;;;;21.47;8.90;;;;;;;;;;10127083;29;20104;-80
2024/01/02 01:43:25;;;;;;;22.90;10.53;;;;;;;;;;10127422;29;20028;-80
2024/01/02 01:48:26;;;;;;;23.17;9.70;;;;;;;;;;10127643;29;20041;-80
2024/01/02 01:53:28;;;;;;;25.47;11.50;;;;;;;;;;10126745;29;20777;-82
2024/01/02 01:58:35;;;;;;;26.20;10.70;;;;;;;;;;10127229;29;20044;-80
2024/01/02 02:03:38;;;;;;;31.73;12.77;;;;;;;;;;10126251;29;20037;-80
2024/01/02 02:08:39;;;;;;;28.73;12.70;;;;;;;;;;10108629;29;20065;-80
2024/01/02 02:13:41;;;;;;;27.40;12.87;;;;;;;;;;10126117;29;20052;-80
2024/01/02 02:18:42;;;;;;;29.13;13.87;;;;;;;;;;10126376;29;20463;-80
2024/01/02 02:23:43;;;;;;;34.03;14.77;;;;;;;;;;10125594;29;20071;-83
2024/01/02 02:28:44;;;;;;;41.97;19.23;;;;;;;;;;10110007;29;20131;-80
2024/01/02 02:33:45;;;;;;;35.30;17.00;;;;;;;;;;10126157;29;20572;-80
2024/01/02 02:38:52;;;;;;;38.20;16.93;;;;;;;;;;10126273;29;20036;-80
2024/01/02 02:43:53;;;;;;;29.43;15.00;;;;;;;;;;10125565;29;20401;-81
2024/01/02 02:48:54;;;;;;;24.27;12.30;;;;;;;;;;10124575;29;20043;-80
2024/01/02 02:53:55;;;;;;;26.07;12.13;;;;;;;;;;10124605;29;20433;-83
2024/01/02 02:58:56;;;;;;;26.17;10.93;;;;;;;;;;10124408;29;20058;-81
2024/01/02 03:03:57;;;;;;;22.40;10.23;;;;;;;;;;10125020;29;20119;-82
2024/01/02 03:08:58;;;;;;;22.53;8.97;;;;;;;;;;10107313;29;20032;-84
2024/01/02 03:13:59;;;;;;;19.80;9.10;;;;;;;;;;10124503;29;20130;-82
2024/01/02 03:19:00;;;;;;;22.87;9.50;;;;;;;;;;10129068;29;20047;-80
2024/01/02 03:24:02;;;;;;;19.33;9.10;;;;;;;;;;10132714;29;20749;-80
2024/01/02 03:29:04;;;;;;;14.07;7.40;;;;;;;;;;10132971;29;20028;-81
2024/01/02 03:34:11;;;;;;;17.97;7.07;;;;;;;;;;10132933;29;20033;-84
2024/01/02 03:39:12;;;;;;;17.37;7.10;;;;;;;;;;10103116;29;20045;-81
2024/01/02 03:44:13;;;;;;;12.17;7.17;;;;;;;;;;10115394;29;20036;-79
2024/01/02 03:49:14;;;;;;;14.23;7.60;;;;;;;;;;10132162;29;20036;-80
2024/01/02 03:54:16;;;;;;;16.03;9.07;;;;;;;;;;10132436;29;20056;-81
2024/01/02 03:59:17;;;;;;;30.67;14.40;;;;;;;;;;10113806;29;20124;-80
2024/01/02 04:04:18;;;;;;;26.27;13.33;;;;;;;;;;10101651;29;20045;-80
2024/01/02 04:09:19;;;;;;;28.10;15.43;;;;;;;;;;10098779;29;20169;-79
2024/01/02 04:14:20;;;;;;;28.90;14.40;;;;;;;;;;10099207;29;20081;-84
2024/01/02 04:19:21;;;;;;;26.93;14.13;;;;;;;;;;10104092;29;20044;-84
2024/01/02 04:24:23;;;;;;;28.90;14.93;;;;;;;;;;10105028;29;20409;-80
2024/01/02 04:29:25;;;;;;;35.63;15.73;;;;;;;;;;10092826;29;20118;-80
2024/01/02 04:34:26;;;;;;;32.77;16.17;;;;;;;;;;10112134;29;20036;-81
2024/01/02 04:39:27;;;;;;;32.77;14.90;;;;;;;;;;10108694;29;20033;-80
2024/01/02 04:44:28;;;;;;;31.63;13.93;;;;;;;;;;10092412;29;20045;-82
2024/01/02 04:49:29;;;;;;;26.33;13.03;;;;;;;;;;10093239;29;20049;-80
2024/01/02 04:54:30;;;;;;;27.10;14.03;;;;;;;;;;10105794;29;20072;-81
2024/01/02 04:59:31;;;;;;;30.83;13.43;;;;;;;;;;10090844;29;20577;-80
2024/01/02 05:04:33;;;;;;;24.07;12.03;;;;;;;;;;10089704;29;20040;-80
2024/01/02 05:09:34;;;;;;;25.50;11.90;;;;;;;;;;10089946;29;20450;-81
2024/01/02 05:14:35;;;;;;;21.93;10.43;;;;;;;;;;10089656;29;20107;-84
2024/01/02 05:19:37;;;;;;;25.47;11.30;;;;;;;;;;10091020;29;20029;-79
2024/01/02 05:24:38;;;;;;;21.33;10.43;;;;;;;;;;10089974;29;20576;-79
2024/01/02 05:29:45;;;;;;;20.37;9.37;;;;;;;;;;10072823;29;20041;-80
2024/01/02 05:34:46;;;;;;;20.27;9.97;;;;;;;;;;10090998;29;20394;-80
2024/01/02 05:39:47;;;;;;;29.80;11.97;;;;;;;;;;10088372;29;20044;-80
2024/01/02 05:44:48;;;;;;;28.17;13.13;;;;;;;;;;10089373;29;20043;-81
2024/01/02 05:49:49;;;;;;;26.57;13.07;;;;;;;;;;10087988;29;20048;-80
2024/01/02 05:54:50;;;;;;;36.87;15.07;;;;;;;;;;10095749;29;20080;-80
2024/01/02 05:59:51;;;;;;;35.17;15.97;;;;;;;;;;10126783;29;20048;-80
2024/01/02 06:04:52;;;;;;;35.97;15.17;;;;;;;;;;10126914;29;20032;-81
2024/01/02 06:09:53;;;;;;;30.50;13.67;;;;;;;;;;10126275;29;20052;-81
2024/01/02 06:14:54;;;;;;;29.77;13.87;;;;;;;;;;10125945;29;20037;-81
2024/01/02 06:19:56;;;;;;;28.10;13.43;;;;;;;;;;10125539;29;20418;-83
2024/01/02 06:24:57;;;;;;;30.00;15.30;;;;;;;;;;10125503;29;20028;-80
2024/01/02 06:29:58;;;;;;;27.73;13.37;;;;;;;;;;10126122;29;20032;-80
2024/01/02 06:35:00;;;;;;;23.23;12.53;;;;;;;;;;10114258;29;20032;-80
2024/01/02 06:40:01;;;;;;;28.53;13.03;;;;;;;;;;10117831;29;20119;-82
2024/01/02 06:45:02;;;;;;;26.47;13.90;;;;;;;;;;10125209;29;20757;-83
2024/01/02 06:50:03;;;;;;;41.83;17.57;;;;;;;;;;10119032;29;20053;-80
2024/01/02 06:55:04;;;;;;;35.87;16.13;;;;;;;;;;10119341;29;20052;-81
2024/01/02 07:00:06;;;;;;;30.67;15.13;;;;;;;;;;10114156;29;20052;-80
2024/01/02 07:05:07;;;;;;;42.30;19.67;;;;;;;;;;10107407;29;20651;-80
2024/01/02 07:10:09;;;;;;;49.23;22.87;;;;;;;;;;10113615;29;20113;-80
2024/01/02 07:15:10;;;;;;;65.47;28.67;;;;;;;;;;10119580;29;20119;-82
2024/01/02 07:20:12;;;;;;;69.07;26.63;;;;;;;;;;10123232;29;20072;-80
2024/01/02 07:25:14;;;;;;;53.20;23.90;;;;;;;;;;10109370;29;20041;-81
2024/01/02 07:30:15;;;;;;;48.30;23.20;;;;;;;;;;10122141;29;20497;-80
2024/01/02 07:35:16;;;;;;;41.30;18.93;;;;;;;;;;10110575;29;20025;-81
2024/01/02 07:40:17;;;;;;;32.77;16.17;;;;;;;;;;10108580;29;20025;-79
2024/01/02 07:45:18;;;;;;;37.53;16.33;;;;;;;;;;10106633;29;20033;-80
2024/01/02 07:50:19;;;;;;;44.30;18.63;;;;;;;;;;10113726;29;20052;-80
2024/01/02 07:55:20;;;;;;;41.47;17.80;;;;;;;;;;10114109;29;20561;-80
2024/01/02 08:00:21;;;;;;;33.70;15.23;;;;;;;;;;10115450;29;20076;-80
2024/01/02 08:05:22;;;;;;;33.87;14.57;;;;;;;;;;10116858;29;20060;-80
2024/01/02 08:10:23;;;;;;;32.20;14.53;;;;;;;;;;10131551;29;20496;-80
2024/01/02 08:15:24;;;;;;;32.20;13.60;;;;;;;;;;10121154;29;20032;-80
2024/01/02 08:20:25;;;;;;;29.17;13.77;;;;;;;;;;10130980;29;20056;-81
2024/01/02 08:25:28;;;;;;;53.87;29.23;;;;;;;;;;10114178;29;20083;-82
2024/01/02 08:30:29;;;;;;;56.07;23.93;;;;;;;;;;10119203;29;20484;-80
2024/01/02 08:35:36;;;;;;;41.77;23.37;;;;;;;;;;10122186;29;20028;-85
2024/01/02 08:40:37;;;;;;;26.40;12.00;;;;;;;;;;10126031;29;20205;-80
2024/01/02 08:45:38;;;;;;;24.53;11.73;;;;;;;;;;10109641;29;20044;-81
2024/01/02 08:50:46;;;;;;;27.00;12.17;;;;;;;;;;10101627;29;20143;-80
2024/01/02 08:55:47;;;;;;;25.40;10.33;;;;;;;;;;10115700;29;20159;-80
2024/01/02 09:00:48;;;;;;;23.80;9.93;;;;;;;;;;10118705;29;20104;-79
2024/01/02 09:05:49;;;;;;;29.93;11.77;;;;;;;;;;10117001;29;20036;-81
2024/01/02 09:10:51;;;;;;;25.73;10.90;;;;;;;;;;10108561;29;20394;-81
2024/01/02 09:15:52;;;;;;;23.30;10.07;;;;;;;;;;10110210;29;20136;-81
2024/01/02 09:20:54;;;;;;;22.13;10.57;;;;;;;;;;10107760;29;20039;-83
2024/01/02 09:25:59;;;;;;;41.40;17.07;;;;;;;;;;10097757;29;20037;-84
2024/01/02 09:31:09;;;;;;;34.80;14.07;;;;;;;;;;10111830;29;20289;-82
2024/01/02 09:36:10;;;;;;;21.57;9.07;;;;;;;;;;10117860;29;20024;-81
2024/01/02 09:41:31;;;;;;;30.57;11.97;;;;;;;;;;10108817;29;20088;-84
2024/01/02 09:46:52;;;;;;;28.17;12.20;;;;;;;;;;10098040;29;20048;-83
2024/01/02 09:52:03;;;;;;;16.63;7.43;;;;;;;;;;10117574;29;20486;-81
2024/01/02 09:57:07;;;;;;;28.10;10.10;;;;;;;;;;10123303;29;20064;-81
2024/01/02 10:02:29;;;;;;;18.30;8.63;;;;;;;;;;10102154;29;20461;-79
2024/01/02 10:07:44;;;;;;;26.37;8.47;;;;;;;;;;10107431;29;20036;-81
2024/01/02 10:13:00;;;;;;;27.13;11.33;;;;;;;;;;10115293;29;20045;-77
2024/01/02 10:18:01;;;;;;;;;;;;;;;;;;10114525;29;20039;-78
2024/01/02 10:23:30;;;;;;;25.00;10.47;;;;;;;;;;10112363;29;19931;-82
2024/01/02 10:28:36;;;;;;;23.63;8.90;;;;;;;;;;10124430;29;20032;-82
2024/01/02 10:33:46;;;;;;;22.70;8.43;;;;;;;;;;10100677;29;20119;-80
2024/01/02 10:38:59;;;;;;;19.40;8.00;;;;;;;;;;10124543;29;20500;-80
2024/01/02 10:44:06;;;;;;;23.20;9.30;;;;;;;;;;10124908;29;20041;-80
2024/01/02 10:49:26;;;;;;;16.70;7.13;;;;;;;;;;10121518;29;20041;-80
2024/01/02 11:06:45;;;;;;;18.13;7.20;;;;;;;;;;10125609;29;20437;-82
2024/01/02 11:11:50;;;;;;;14.93;6.97;;;;;;;;;;10106552;29;20047;-80
2024/01/02 11:16:52;;;;;;;20.23;7.45;;;;;;;;;;10108280;29;20032;-80
2024/01/02 11:33:45;;;;;;;23.90;9.90;;;;;;;;;;10118575;29;20048;-79
2024/01/02 11:39:03;;;;;;;33.40;13.93;;;;;;;;;;10109176;29;20120;-80
2024/01/02 11:44:42;;;;;;;22.23;9.63;;;;;;;;;;10114689;29;20044;-81
2024/01/02 11:55:39;;;;;;;23.33;9.57;;;;;;;;;;10130332;29;20048;-81
2024/01/02 12:00:49;;;;;;;21.97;8.47;;;;;;;;;;10111058;29;20060;-79
2024/01/02 12:05:51;;;;;;;23.20;8.27;;;;;;;;;;10106665;29;20159;-81
2024/01/02 12:10:56;;;;;;;19.93;8.23;;;;;;;;;;10110217;29;20032;-80
2024/01/02 12:16:01;;;;;;;21.50;8.60;;;;;;;;;;10109987;29;20048;-85
2024/01/02 12:21:03;;;;;;;19.33;7.70;;;;;;;;;;10111471;29;20029;-83
2024/01/02 12:26:09;;;;;;;22.13;8.87;;;;;;;;;;10110747;29;20021;-81
2024/01/02 12:31:14;;;;;;;21.23;7.63;;;;;;;;;;10110778;29;20056;-79
2024/01/02 12:36:15;;;;;;;23.77;7.67;;;;;;;;;;10124663;29;20025;-80
2024/01/02 12:41:19;;;;;;;18.70;7.33;;;;;;;;;;10118030;29;20036;-79
2024/01/02 12:46:31;;;;;;;18.77;7.90;;;;;;;;;;10119881;29;20043;-81
2024/01/02 12:51:33;;;;;;;79.97;38.90;;;;;;;;;;10124211;29;20033;-80
2024/01/02 12:56:36;;;;;;;25.27;10.90;;;;;;;;;;10107734;29;20057;-80
2024/01/02 13:01:37;;;;;;;21.10;7.40;;;;;;;;;;10124393;29;20051;-80
2024/01/02 13:06:39;;;;;;;19.70;6.97;;;;;;;;;;10125524;29;20053;-80
2024/01/02 13:11:41;;;;;;;17.47;7.37;;;;;;;;;;10125484;29;20051;-80
2024/01/02 13:16:46;;;;;;;15.77;6.33;;;;;;;;;;10119743;29;20040;-80
2024/01/02 13:21:48;;;;;;;16.92;7.40;;;;;;;;;;10123347;29;20041;-80
2024/01/02 13:26:50;;;;;;;18.50;7.23;;;;;;;;;;10116075;29;20119;-80
2024/01/02 13:31:53;;;;;;;20.80;8.60;;;;;;;;;;10110206;29;20047;-81
2024/01/02 13:36:55;;;;;;;16.17;7.80;;;;;;;;;;10113713;29;20044;-81
2024/01/02 13:41:56;;;;;;;17.00;7.27;;;;;;;;;;10120204;29;20029;-82
2024/01/02 13:46:57;;;;;;;23.20;8.57;;;;;;;;;;10126686;29;20044;-79
2024/01/02 13:51:58;;;;;;;18.90;7.73;;;;;;;;;;10111163;29;20052;-82
2024/01/02 13:56:59;;;;;;;22.57;9.23;;;;;;;;;;10122360;29;20420;-81
2024/01/02 14:02:03;;;;;;;21.23;7.87;;;;;;;;;;10102519;29;20029;-82
2024/01/02 14:07:05;;;;;;;18.63;7.47;;;;;;;;;;10115625;29;20155;-79
2024/01/02 14:12:08;;;;;;;15.47;6.60;;;;;;;;;;10118179;29;20448;-79
2024/01/02 14:17:13;;;;;;;19.93;7.57;;;;;;;;;;10120820;29;20058;-79
2024/01/02 14:22:25;;;;;;;12.97;5.17;;;;;;;;;;10114991;29;20036;-79
2024/01/02 14:27:32;;;;;;;8.67;4.17;;;;;;;;;;10116623;29;20542;-82
2024/01/02 14:32:33;;;;;;;10.53;3.80;;;;;;;;;;10124749;29;20467;-81
2024/01/02 14:37:50;;;;;;;16.00;5.17;;;;;;;;;;10124846;29;20033;-79
2024/01/02 14:43:10;;;;;;;11.27;3.27;;;;;;;;;;10123963;29;20028;-79
2024/01/02 14:48:14;;;;;;;9.30;3.67;;;;;;;;;;10124166;29;20427;-79
2024/01/02 14:53:22;;;;;;;12.33;5.10;;;;;;;;;;10111185;29;20048;-80
2024/01/02 14:58:26;;;;;;;8.73;3.90;;;;;;;;;;10121653;29;20083;-80
2024/01/02 15:03:32;;;;;;;12.17;5.17;;;;;;;;;;10107566;29;20033;-80
2024/01/02 15:08:46;;;;;;;10.67;3.80;;;;;;;;;;10125511;29;20029;-81
2024/01/02 15:13:54;;;;;;;9.23;3.90;;;;;;;;;;10134151;29;20041;-80
2024/01/02 15:19:13;;;;;;;15.10;5.03;;;;;;;;;;10138293;29;20032;-80
2024/01/02 15:24:17;;;;;;;16.73;7.70;;;;;;;;;;10139343;29;20461;-82
2024/01/02 15:29:18;;;;;;;34.80;13.83;;;;;;;;;;10138257;29;20033;-79
2024/01/02 15:34:19;;;;;;;23.00;12.03;;;;;;;;;;10126181;29;20400;-79
2024/01/02 15:39:24;;;;;;;244.17;123.87;;;;;;;;;;10137298;29;20047;-80
2024/01/02 15:44:27;;;;;;;51.47;21.67;;;;;;;;;;10137902;29;20508;-79
2024/01/02 15:49:29;;;;;;;41.03;17.50;;;;;;;;;;10103040;29;20515;-81
2024/01/02 15:54:33;;;;;;;19.63;9.10;;;;;;;;;;10108074;29;20392;-82
2024/01/02 15:59:54;;;;;;;28.23;13.60;;;;;;;;;;10137401;29;20159;-79
2024/01/02 16:05:04;;;;;;;22.73;9.23;;;;;;;;;;10113556;29;20032;-81
2024/01/02 16:10:24;;;;;;;14.87;8.03;;;;;;;;;;10126522;29;20047;-81
2024/01/02 16:15:44;;;;;;;30.33;14.97;;;;;;;;;;10137824;29;20457;-79
2024/01/02 16:20:45;;;;;;;25.57;13.50;;;;;;;;;;10137541;29;20498;-79
2024/01/02 16:25:55;;;;;;;23.23;9.43;;;;;;;;;;10115409;29;20112;-81
2024/01/02 16:31:09;;;;;;;24.03;13.37;;;;;;;;;;10120777;29;20061;-79
2024/01/02 16:36:10;;;;;;;26.53;14.70;;;;;;;;;;10109148;29;20037;-82
2024/01/02 16:41:21;;;;;;;33.77;17.73;;;;;;;;;;10120536;29;20037;-80
2024/01/02 16:46:23;;;;;;;55.73;25.30;;;;;;;;;;10119283;29;20041;-84
2024/01/02 16:51:27;;;;;;;94.33;44.87;;;;;;;;;;10100027;29;20059;-82
2024/01/02 16:56:37;;;;;;;26.87;15.13;;;;;;;;;;10108651;29;20041;-82
2024/01/02 17:01:39;;;;;;;39.87;21.53;;;;;;;;;;10098940;29;20052;-79
2024/01/02 17:06:40;;;;;;;25.23;13.87;;;;;;;;;;10117803;29;20064;-81
2024/01/02 17:11:42;;;;;;;98.00;42.80;;;;;;;;;;10118161;29;20048;-81
2024/01/02 17:16:43;;;;;;;109.83;47.83;;;;;;;;;;10128261;29;20044;-78
2024/01/02 17:21:44;;;;;;;87.60;37.10;;;;;;;;;;10104120;29;20807;-79
2024/01/02 17:26:47;;;;;;;78.73;35.27;;;;;;;;;;10107583;29;20066;-80
2024/01/02 17:31:54;;;;;;;30.33;14.43;;;;;;;;;;10119509;29;20102;-79
2024/01/02 17:36:57;;;;;;;45.27;18.03;;;;;;;;;;10118515;29;20048;-80
2024/01/02 17:41:59;;;;;;;17.90;8.30;;;;;;;;;;10128648;29;20044;-78
2024/01/02 17:47:00;;;;;;;31.43;14.10;;;;;;;;;;10110308;29;20118;-82
2024/01/02 17:52:01;;;;;;;16.17;8.33;;;;;;;;;;10104908;29;20045;-79
2024/01/02 17:57:22;;;;;;;20.87;10.57;;;;;;;;;;10123276;29;20055;-82
2024/01/02 18:02:32;;;;;;;29.83;15.53;;;;;;;;;;10105827;29;20029;-81
2024/01/02 18:07:33;;;;;;;15.83;8.23;;;;;;;;;;10119758;29;20041;-79
2024/01/02 18:12:37;;;;;;;22.77;10.60;;;;;;;;;;10096950;29;20053;-80
2024/01/02 18:17:44;;;;;;;13.40;7.30;;;;;;;;;;10118750;29;20110;-80
2024/01/02 18:22:54;;;;;;;23.60;10.10;;;;;;;;;;10119745;29;20445;-82
2024/01/02 18:28:18;;;;;;;17.57;8.10;;;;;;;;;;10088487;29;20064;-81
2024/01/02 18:33:38;;;;;;;51.23;24.33;;;;;;;;;;10114209;29;20053;-81
2024/01/02 18:38:51;;;;;;;20.50;9.90;;;;;;;;;;10113357;29;20029;-84
2024/01/02 18:43:56;;;;;;;101.63;49.07;;;;;;;;;;10112264;29;20419;-80
2024/01/02 18:49:00;;;;;;;22.63;12.97;;;;;;;;;;10121705;29;20877;-80
2024/01/02 18:54:04;;;;;;;31.10;18.07;;;;;;;;;;10123046;29;20029;-82
2024/01/02 18:59:06;;;;;;;24.43;12.37;;;;;;;;;;10112492;29;20044;-79
2024/01/02 19:04:08;;;;;;;25.77;14.47;;;;;;;;;;10122287;29;20373;-79
2024/01/02 19:09:14;;;;;;;43.57;22.17;;;;;;;;;;10095992;29;20039;-80
2024/01/02 19:14:15;;;;;;;;;;;;;;;;;;10106523;29;20112;-79
2024/01/02 19:19:16;;;;;;;35.33;21.90;;;;;;;;;;10109292;29;19963;-81
2024/01/02 19:24:18;;;;;;;57.37;28.93;;;;;;;;;;10107928;29;20024;-80
2024/01/02 19:29:19;;;;;;;124.67;53.23;;;;;;;;;;10111840;29;20043;-80
2024/01/02 19:34:20;;;;;;;78.47;36.27;;;;;;;;;;10106338;29;20060;-81
2024/01/02 19:39:21;;;;;;;45.43;22.33;;;;;;;;;;10119211;29;20037;-82
2024/01/02 19:44:24;;;;;;;43.10;21.03;;;;;;;;;;10114482;29;20147;-80
2024/01/02 19:49:25;;;;;;;37.57;20.30;;;;;;;;;;10096231;29;20076;-80
2024/01/02 19:54:47;;;;;;;35.87;17.47;;;;;;;;;;10109185;29;20132;-80
2024/01/02 19:59:58;;;;;;;33.23;18.30;;;;;;;;;;10104325;29;20568;-80
2024/01/02 20:04:59;;;;;;;27.50;14.97;;;;;;;;;;10109519;29;20048;-80
2024/01/02 20:10:16;;;;;;;30.20;14.87;;;;;;;;;;10121816;29;20036;-83
2024/01/02 20:15:23;;;;;;;27.67;15.23;;;;;;;;;;10115930;29;20401;-80
2024/01/02 20:20:42;;;;;;;27.07;16.10;;;;;;;;;;10108704;29;20037;-80
2024/01/02 20:25:46;;;;;;;24.77;14.30;;;;;;;;;;10125562;29;20119;-80
2024/01/02 20:30:48;;;;;;;21.03;12.60;;;;;;;;;;10118132;29;20516;-80
2024/01/02 20:35:49;;;;;;;20.40;11.10;;;;;;;;;;10120180;29;20037;-79
2024/01/02 20:40:50;;;;;;;24.13;11.60;;;;;;;;;;10109590;29;20041;-80
2024/01/02 20:45:52;;;;;;;20.77;12.73;;;;;;;;;;10120470;29;20035;-80
2024/01/02 20:50:57;;;;;;;31.57;22.83;;;;;;;;;;10123719;29;20545;-79
2024/01/02 20:55:58;;;;;;;21.23;13.70;;;;;;;;;;10114914;29;20064;-79
2024/01/02 21:00:59;;;;;;;20.87;13.17;;;;;;;;;;10107643;29;20055;-79
2024/01/02 21:06:15;;;;;;;24.53;12.60;;;;;;;;;;10122317;29;20088;-79
2024/01/02 21:11:19;;;;;;;;;;;;;;;;;;10119900;29;20051;-78
2024/01/02 21:16:21;;;;;;;20.63;10.93;;;;;;;;;;10121800;29;20340;-77
2024/01/02 21:21:35;;;;;;;18.70;11.17;;;;;;;;;;10123396;29;20112;-78
2024/01/02 21:26:36;;;;;;;22.33;11.50;;;;;;;;;;10124580;29;20040;-79
2024/01/02 21:31:37;;;;;;;18.93;10.13;;;;;;;;;;10113471;29;20075;-78
2024/01/02 21:36:38;;;;;;;20.33;10.27;;;;;;;;;;10108457;29;20035;-78
2024/01/02 21:41:39;;;;;;;23.90;10.90;;;;;;;;;;10118657;29;20516;-79
2024/01/02 21:46:40;;;;;;;20.70;10.90;;;;;;;;;;10123153;29;20063;-78
2024/01/02 21:51:41;;;;;;;19.13;10.47;;;;;;;;;;10117214;29;20934;-79
2024/01/02 21:56:42;;;;;;;16.50;8.97;;;;;;;;;;10109617;29;20033;-80
2024/01/02 22:01:43;;;;;;;20.43;10.80;;;;;;;;;;10103960;29;20060;-79
2024/01/02 22:06:44;;;;;;;19.43;10.83;;;;;;;;;;10112977;29;20041;-80
2024/01/02 22:11:51;;;;;;;22.03;10.73;;;;;;;;;;10108692;29;20404;-79
2024/01/02 22:17:02;;;;;;;19.80;10.27;;;;;;;;;;10090277;29;20033;-80
2024/01/02 22:22:06;;;;;;;29.67;13.40;;;;;;;;;;10119347;29;20552;-79
2024/01/02 22:27:10;;;;;;;21.37;10.40;;;;;;;;;;10079692;23;20065;-80
2024/01/02 22:32:11;;;;;;;20.63;11.50;;;;;;;;;;10048154;29;20042;-80
2024/01/02 22:37:24;;;;;;;18.70;10.37;;;;;;;;;;10046573;29;20038;-81
2024/01/02 22:42:28;;;;;;;14.47;8.37;;;;;;;;;;10038139;29;20557;-79
2024/01/02 22:47:29;;;;;;;16.80;9.77;;;;;;;;;;10042843;29;20492;-80
2024/01/02 22:52:30;;;;;;;16.80;9.30;;;;;;;;;;10030749;29;20049;-80
2024/01/02 22:57:34;;;;;;;16.37;8.87;;;;;;;;;;10046134;29;20034;-80
2024/01/02 23:02:35;;;;;;;20.40;10.23;;;;;;;;;;10020859;29;20053;-79
2024/01/02 23:07:35;;;;;;;18.93;10.83;;;;;;;;;;10033951;29;20460;-79
2024/01/02 23:12:38;;;;;;;17.53;10.63;;;;;;;;;;10027855;29;20482;-80
2024/01/02 23:17:39;;;;;;;21.20;12.47;;;;;;;;;;10044692;29;20055;-79
2024/01/02 23:22:40;;;;;;;22.47;12.73;;;;;;;;;;10028808;29;20041;-79
2024/01/02 23:27:48;;;;;;;28.07;20.93;;;;;;;;;;10077106;29;20164;-79
2024/01/02 23:32:50;;;;;;;20.83;12.03;;;;;;;;;;10114952;29;20050;-80
2024/01/02 23:37:51;;;;;;;25.27;16.67;;;;;;;;;;10133335;29;20040;-81
2024/01/02 23:42:52;;;;;;;24.23;15.90;;;;;;;;;;10130738;29;20450;-79
2024/01/02 23:47:53;;;;;;;18.30;10.90;;;;;;;;;;10131467;29;20812;-79
2024/01/02 23:52:54;;;;;;;19.80;10.57;;;;;;;;;;10130965;29;20124;-79
2024/01/02 23:57:57;;;;;;;27.30;13.23;;;;;;;;;;10132251;29;20036;-80
